createdAt,value
2022-12-18T00:02:49.779Z,0.99
2022-12-18T00:05:53.273Z,0.95
2022-12-18T00:08:57.463Z,0.99
2022-12-18T00:11:59.790Z,1.18
2022-12-18T00:15:02.137Z,1.11
2022-12-18T00:18:05.537Z,1.19
2022-12-18T00:21:11.341Z,1.05
2022-12-18T00:24:13.713Z,1.02
2022-12-18T00:27:16.095Z,0.78
2022-12-18T00:30:18.684Z,0.90
2022-12-18T00:33:21.017Z,0.90
2022-12-18T00:36:29.101Z,0.66
2022-12-18T00:39:31.502Z,0.78
2022-12-18T00:42:53.550Z,0.77
2022-12-18T00:45:55.944Z,0.66
2022-12-18T00:48:58.457Z,0.47
2022-12-18T00:52:00.810Z,0.67
2022-12-18T00:55:06.435Z,0.58
2022-12-18T00:58:10.462Z,0.70
2022-12-18T01:01:12.843Z,0.49
2022-12-18T01:04:16.272Z,0.53
2022-12-18T01:07:21.376Z,0.39
2022-12-18T01:10:24.598Z,0.48
2022-12-18T01:13:27.766Z,0.47
2022-12-18T01:16:30.173Z,0.27
2022-12-18T01:19:33.217Z,0.45
2022-12-18T01:22:36.311Z,0.31
2022-12-18T01:25:39.647Z,0.50
2022-12-18T01:28:45.820Z,0.64
2022-12-18T01:31:48.305Z,0.36
2022-12-18T01:34:50.726Z,0.46
2022-12-18T01:37:56.210Z,0.24
2022-12-18T01:40:59.816Z,0.36
2022-12-18T01:44:02.122Z,0.11
2022-12-18T01:47:04.774Z,0.19
2022-12-18T01:50:15.727Z,0.34
2022-12-18T01:53:24.579Z,0.16
2022-12-18T01:56:27.030Z,0.10
2022-12-18T01:59:32.386Z,0.09
2022-12-18T02:02:35.274Z,-0.19
2022-12-18T02:06:02.335Z,-0.06
2022-12-18T02:09:19.384Z,-0.14
2022-12-18T02:12:25.515Z,-0.27
2022-12-18T02:15:49.398Z,-0.05
2022-12-18T02:18:59.118Z,-0.24
2022-12-18T02:22:13.243Z,0.02
2022-12-18T02:25:43.634Z,0.05
2022-12-18T02:29:01.479Z,-0.04
2022-12-18T02:32:11.458Z,0.05
2022-12-18T02:35:19.612Z,0.09
2022-12-18T02:38:23.681Z,0.11
2022-12-18T02:41:28.398Z,0.23
2022-12-18T02:44:30.814Z,0.17
2022-12-18T02:47:39.094Z,0.13
2022-12-18T02:51:28.936Z,0.06
2022-12-18T02:54:54.570Z,-0.29
2022-12-18T02:58:11.435Z,-0.35
2022-12-18T03:01:24.175Z,-0.26
2022-12-18T03:04:39.418Z,-0.44
2022-12-18T03:07:57.330Z,-0.70
2022-12-18T03:11:05.708Z,-0.63
2022-12-18T03:14:12.519Z,-0.97
2022-12-18T03:17:20.410Z,-0.82
2022-12-18T03:20:25.592Z,-0.97
2022-12-18T03:23:35.602Z,-1.11
2022-12-18T03:26:44.561Z,-1.25
2022-12-18T03:30:11.195Z,-1.12
2022-12-18T03:33:20.720Z,-1.32
2022-12-18T03:36:25.705Z,-1.13
2022-12-18T03:39:28.366Z,-1.18
2022-12-18T03:42:40.438Z,-1.06
2022-12-18T03:45:58.584Z,-1.09
2022-12-18T03:49:23.534Z,-0.98
2022-12-18T03:52:25.954Z,-1.12
2022-12-18T03:55:34.588Z,-1.04
2022-12-18T03:58:42.276Z,-1.09
2022-12-18T04:01:56.003Z,-1.52
2022-12-18T04:05:03.668Z,-1.54
2022-12-18T04:08:06.288Z,-1.89
2022-12-18T04:11:12.360Z,-1.76
2022-12-18T04:14:17.988Z,-1.87
2022-12-18T04:17:22.902Z,-1.75
2022-12-18T04:20:25.878Z,-1.73
2022-12-18T04:23:29.387Z,-1.96
2022-12-18T04:26:34.214Z,-1.96
2022-12-18T04:29:50.345Z,-1.74
2022-12-18T04:32:54.135Z,-1.95
2022-12-18T04:35:57.723Z,-1.88
2022-12-18T04:39:01.522Z,-1.65
2022-12-18T04:42:04.035Z,-1.60
2022-12-18T04:45:07.159Z,-1.78
2022-12-18T04:48:09.618Z,-1.88
2022-12-18T04:51:12.951Z,-2.09
2022-12-18T04:54:15.310Z,-1.66
2022-12-18T04:57:19.023Z,-1.51
2022-12-18T05:00:21.811Z,-1.26
2022-12-18T05:03:24.251Z,-1.11
2022-12-18T05:06:26.659Z,-1.23
2022-12-18T05:09:29.026Z,-1.14
2022-12-18T05:12:32.530Z,-1.04
2022-12-18T05:15:35.372Z,-0.70
2022-12-18T05:18:38.083Z,-0.82
2022-12-18T05:21:40.416Z,-0.94
2022-12-18T05:24:42.801Z,-0.56
2022-12-18T05:27:45.951Z,-0.57
2022-12-18T05:30:53.332Z,-0.21
2022-12-18T05:33:55.753Z,-0.21
2022-12-18T05:36:58.148Z,-0.32
2022-12-18T05:40:00.667Z,-0.21
2022-12-18T05:43:03.054Z,-0.25
2022-12-18T05:46:12.639Z,-0.36
2022-12-18T05:49:15.225Z,-0.38
2022-12-18T05:52:17.834Z,-0.37
2022-12-18T05:55:20.204Z,-0.15
2022-12-18T05:58:22.584Z,-0.40
2022-12-18T06:01:27.439Z,-0.15
2022-12-18T06:04:30.045Z,-0.07
2022-12-18T06:07:32.387Z,-0.09
2022-12-18T06:10:34.823Z,-0.21
2022-12-18T06:13:39.288Z,-0.30
2022-12-18T06:16:41.950Z,0.06
2022-12-18T06:19:44.301Z,-0.03
2022-12-18T06:22:46.866Z,-0.06
2022-12-18T06:25:49.182Z,0.02
2022-12-18T06:28:51.556Z,-0.03
2022-12-18T06:31:54.006Z,-0.08
2022-12-18T06:34:56.546Z,0.05
2022-12-18T06:37:58.949Z,-0.20
2022-12-18T06:41:01.473Z,-0.16
2022-12-18T06:44:04.126Z,-0.09
2022-12-18T06:47:06.503Z,-0.11
2022-12-18T06:50:08.934Z,-0.14
2022-12-18T06:53:11.291Z,-0.16
2022-12-18T06:56:13.882Z,-0.07
2022-12-18T06:59:16.339Z,-0.09
2022-12-18T07:02:19.018Z,0.14
2022-12-18T07:05:21.490Z,0.34
2022-12-18T07:08:24.059Z,0.15
2022-12-18T07:11:26.557Z,0.35
2022-12-18T07:14:28.937Z,0.31
2022-12-18T07:17:32.334Z,0.29
2022-12-18T07:20:34.762Z,0.22
2022-12-18T07:23:37.880Z,0.03
2022-12-18T07:26:40.518Z,0.37
2022-12-18T07:29:42.879Z,0.30
2022-12-18T07:32:45.238Z,-0.18
2022-12-18T07:35:47.624Z,0.14
2022-12-18T07:38:50.757Z,-0.12
2022-12-18T07:42:11.578Z,-0.18
2022-12-18T07:45:16.005Z,-0.26
2022-12-18T07:48:18.410Z,-0.20
2022-12-18T07:51:20.895Z,-0.14
2022-12-18T07:54:24.138Z,0.18
2022-12-18T07:57:49.413Z,0.16
2022-12-18T08:00:48.896Z,0.12
2022-12-18T08:03:52.213Z,0.06
2022-12-18T08:06:54.783Z,0.03
2022-12-18T08:09:57.186Z,0.17
2022-12-18T08:13:04.555Z,0.04
2022-12-18T08:16:09.070Z,0.50
2022-12-18T08:19:11.550Z,0.99
2022-12-18T08:22:13.970Z,1.47
2022-12-18T08:25:16.524Z,2.08
2022-12-18T08:28:19.046Z,3.54
2022-12-18T08:31:22.354Z,4.76
2022-12-18T08:34:25.949Z,5.51
2022-12-18T08:37:28.346Z,6.76
2022-12-18T08:40:30.799Z,7.13
2022-12-18T08:43:51.944Z,7.84
2022-12-18T08:46:54.312Z,8.00
2022-12-18T08:49:56.827Z,8.91
2022-12-18T08:52:59.218Z,9.08
2022-12-18T08:56:01.582Z,8.83
2022-12-18T08:59:05.391Z,8.92
2022-12-18T09:02:10.988Z,9.71
2022-12-18T09:05:13.580Z,10.09
2022-12-18T09:08:15.925Z,9.78
2022-12-18T09:11:24.391Z,7.68
2022-12-18T09:14:26.823Z,8.02
2022-12-18T09:17:29.259Z,7.39
2022-12-18T09:20:31.646Z,7.98
2022-12-18T09:23:34.047Z,8.65
2022-12-18T09:26:37.415Z,9.31
2022-12-18T09:29:40.594Z,8.70
2022-12-18T09:32:43.002Z,8.64
2022-12-18T09:35:46.567Z,9.41
2022-12-18T09:38:49.092Z,9.56
2022-12-18T09:41:58.951Z,8.91
2022-12-18T09:45:01.973Z,7.55
2022-12-18T09:48:08.117Z,6.56
2022-12-18T09:51:18.515Z,7.29
2022-12-18T09:54:31.307Z,7.34
2022-12-18T09:57:38.393Z,6.22
2022-12-18T10:00:44.085Z,4.78
2022-12-18T10:03:46.836Z,3.90
2022-12-18T10:07:17.722Z,3.53
2022-12-18T10:10:50.561Z,3.09
2022-12-18T10:13:56.482Z,2.90
2022-12-18T10:17:09.323Z,2.86
2022-12-18T10:20:30.356Z,2.43
2022-12-18T10:23:58.314Z,2.36
2022-12-18T10:27:15.515Z,2.36
2022-12-18T10:30:20.639Z,2.49
2022-12-18T10:33:25.502Z,2.44
2022-12-18T10:36:27.907Z,2.40
2022-12-18T10:39:30.402Z,2.18
2022-12-18T10:42:32.922Z,2.18
2022-12-18T10:45:36.105Z,2.31
2022-12-18T10:48:48.524Z,2.08
2022-12-18T10:51:52.495Z,2.31
2022-12-18T10:55:04.746Z,2.60
2022-12-18T10:58:35.317Z,2.69
2022-12-18T11:01:48.697Z,2.79
2022-12-18T11:04:52.805Z,3.36
2022-12-18T11:07:55.481Z,3.38
2022-12-18T11:10:57.907Z,3.56
2022-12-18T11:14:05.345Z,3.18
2022-12-18T11:17:29.219Z,2.00
2022-12-18T11:20:37.530Z,2.50
2022-12-18T11:24:18.731Z,2.58
2022-12-18T11:27:21.961Z,2.41
2022-12-18T11:30:27.136Z,2.53
2022-12-18T11:33:29.568Z,2.35
2022-12-18T11:36:38.003Z,2.22
2022-12-18T11:39:53.947Z,1.86
2022-12-18T11:43:04.858Z,1.18
2022-12-18T11:46:19.664Z,0.90
2022-12-18T11:49:27.884Z,1.25
2022-12-18T11:52:39.241Z,1.42
2022-12-18T11:56:30.615Z,1.56
2022-12-18T11:59:46.283Z,1.75
2022-12-18T12:02:57.641Z,1.47
2022-12-18T12:06:20.531Z,1.61
2022-12-18T12:09:34.998Z,1.39
2022-12-18T12:12:55.734Z,1.29
2022-12-18T12:16:10.870Z,1.25
2022-12-18T12:19:37.914Z,1.57
2022-12-18T12:23:16.200Z,1.60
2022-12-18T12:26:41.472Z,1.52
2022-12-18T12:30:00.051Z,1.21
2022-12-18T12:33:22.362Z,1.42
2022-12-18T12:36:47.933Z,1.40
2022-12-18T12:39:53.601Z,1.54
2022-12-18T12:43:14.372Z,1.67
2022-12-18T12:46:20.933Z,1.63
2022-12-18T12:49:30.113Z,1.74
2022-12-18T12:52:52.018Z,1.86
2022-12-18T12:55:55.919Z,1.84
2022-12-18T12:59:24.600Z,1.79
2022-12-18T13:02:34.338Z,1.92
2022-12-18T13:05:54.077Z,2.08
2022-12-18T13:09:01.659Z,2.11
2022-12-18T13:12:34.991Z,1.94
2022-12-18T13:16:20.423Z,1.83
2022-12-18T13:19:26.378Z,1.71
2022-12-18T13:22:37.278Z,2.01
2022-12-18T13:25:39.797Z,2.02
2022-12-18T13:28:48.275Z,1.97
2022-12-18T13:31:50.637Z,1.92
2022-12-18T13:35:18.949Z,1.88
2022-12-18T13:38:36.642Z,1.90
2022-12-18T13:41:39.382Z,1.85
2022-12-18T13:44:42.757Z,1.76
2022-12-18T13:47:46.578Z,1.83
2022-12-18T13:51:10.134Z,1.55
2022-12-18T13:54:31.230Z,1.73
2022-12-18T13:57:44.766Z,1.39
2022-12-18T14:00:47.281Z,1.53
2022-12-18T14:03:51.315Z,1.41
2022-12-18T14:06:58.311Z,1.18
2022-12-18T14:10:12.618Z,1.24
2022-12-18T14:13:35.546Z,1.31
2022-12-18T14:16:37.945Z,1.69
2022-12-18T14:19:51.907Z,1.50
2022-12-18T14:22:55.463Z,1.43
2022-12-18T14:26:02.235Z,1.20
2022-12-18T14:29:28.898Z,1.12
2022-12-18T14:32:31.229Z,1.38
2022-12-18T14:35:36.278Z,1.23
2022-12-18T14:38:41.018Z,1.11
2022-12-18T14:41:43.434Z,1.09
2022-12-18T14:48:19.115Z,0.79
2022-12-18T14:51:28.193Z,0.78
2022-12-18T14:54:32.399Z,0.95
2022-12-18T14:57:38.890Z,0.99
2022-12-18T15:00:43.451Z,0.88
2022-12-18T15:03:45.970Z,0.97
2022-12-18T15:06:49.271Z,0.79
2022-12-18T15:10:23.179Z,0.92
2022-12-18T15:13:25.899Z,0.83
2022-12-18T15:16:28.985Z,0.60
2022-12-18T15:19:43.696Z,0.85
2022-12-18T15:22:48.476Z,0.67
2022-12-18T15:25:58.510Z,0.96
2022-12-18T15:29:03.695Z,0.80
2022-12-18T15:32:20.090Z,0.86
2022-12-18T15:35:25.214Z,0.84
2022-12-18T15:38:28.037Z,0.86
2022-12-18T15:41:36.040Z,0.53
2022-12-18T15:44:38.835Z,0.90
2022-12-18T15:47:44.980Z,0.67
2022-12-18T15:50:47.739Z,0.86
2022-12-18T15:53:53.910Z,0.67
2022-12-18T15:57:14.665Z,0.54
2022-12-18T16:00:17.795Z,0.44
2022-12-18T16:03:20.458Z,0.52
2022-12-18T16:06:23.572Z,0.47
2022-12-18T16:09:26.367Z,0.30
2022-12-18T16:12:29.473Z,0.24
2022-12-18T16:15:32.011Z,0.11
2022-12-18T16:18:34.635Z,-0.12
2022-12-18T16:21:37.617Z,-0.11
2022-12-18T16:24:40.111Z,-0.37
2022-12-18T16:27:42.715Z,-0.45
2022-12-18T16:30:46.467Z,-0.55
2022-12-18T16:33:48.929Z,-0.68
2022-12-18T16:36:51.384Z,-0.50
2022-12-18T16:39:53.959Z,-0.55
2022-12-18T16:42:56.371Z,-0.41
2022-12-18T16:46:00.312Z,-0.41
2022-12-18T16:49:02.982Z,-0.47
2022-12-18T16:52:06.653Z,-0.51
2022-12-18T16:55:10.027Z,-0.62
2022-12-18T16:58:13.080Z,-0.55
2022-12-18T17:01:15.854Z,-0.43
2022-12-18T17:04:18.410Z,-0.60
2022-12-18T17:07:21.167Z,-0.65
2022-12-18T17:10:23.948Z,-0.60
2022-12-18T17:13:27.607Z,-0.52
2022-12-18T17:16:30.277Z,-0.59
2022-12-18T17:19:33.975Z,-0.83
2022-12-18T17:22:36.382Z,-0.99
2022-12-18T17:25:41.819Z,-1.18
2022-12-18T17:28:44.501Z,-1.14
2022-12-18T17:31:48.139Z,-0.86
2022-12-18T17:34:50.785Z,-0.98
2022-12-18T17:37:53.313Z,-0.94
2022-12-18T17:41:01.440Z,-0.90
2022-12-18T17:44:06.205Z,-0.95
2022-12-18T17:47:12.025Z,-0.87
2022-12-18T17:50:14.814Z,-1.06
2022-12-18T17:53:17.399Z,-1.00
2022-12-18T17:56:22.084Z,-0.81
2022-12-18T17:59:24.967Z,-0.71
2022-12-18T18:02:27.759Z,-0.68
2022-12-18T18:05:30.870Z,-0.28
2022-12-18T18:08:35.208Z,-0.46
2022-12-18T18:11:56.316Z,-0.24
2022-12-18T18:14:59.160Z,-0.59
2022-12-18T18:18:01.999Z,-0.44
2022-12-18T18:21:06.303Z,-0.47
2022-12-18T18:24:11.284Z,-0.42
2022-12-18T18:27:14.107Z,-0.51
2022-12-18T18:30:16.923Z,-0.57
2022-12-18T18:33:19.659Z,-0.61
2022-12-18T18:36:23.607Z,-0.74
2022-12-18T18:39:26.813Z,-0.90
2022-12-18T18:42:29.983Z,-1.47
2022-12-18T18:45:32.619Z,-1.26
2022-12-18T18:48:37.354Z,-1.29
2022-12-18T18:51:41.542Z,-1.64
2022-12-18T18:55:10.732Z,-1.61
2022-12-18T18:58:10.134Z,-1.59
2022-12-18T19:01:18.016Z,-2.06
2022-12-18T19:04:20.879Z,-1.68
2022-12-18T19:07:30.347Z,-1.95
2022-12-18T19:10:33.675Z,-2.22
2022-12-18T19:13:36.318Z,-2.22
2022-12-18T19:16:39.609Z,-2.24
2022-12-18T19:19:42.423Z,-2.42
2022-12-18T19:22:54.972Z,-2.62
2022-12-18T19:26:26.932Z,-2.63
2022-12-18T19:29:26.554Z,-2.81
2022-12-18T19:32:29.155Z,-2.88
2022-12-18T19:35:31.744Z,-2.99
2022-12-18T19:38:34.965Z,-3.04
2022-12-18T19:41:38.002Z,-2.89
2022-12-18T19:44:41.081Z,-2.77
2022-12-18T19:47:44.023Z,-2.77
2022-12-18T19:50:46.583Z,-2.85
2022-12-18T19:53:54.942Z,-3.03
2022-12-18T19:57:00.630Z,-3.10
2022-12-18T20:00:04.139Z,-3.31
2022-12-18T20:03:25.248Z,-3.30
2022-12-18T20:06:32.510Z,-3.25
2022-12-18T20:09:36.849Z,-3.26
2022-12-18T20:12:39.822Z,-3.66
2022-12-18T20:15:45.363Z,-3.73
2022-12-18T20:18:49.217Z,-3.81
2022-12-18T20:21:51.750Z,-3.66
2022-12-18T20:24:54.300Z,-3.78
2022-12-18T20:27:56.873Z,-4.08
2022-12-18T20:31:02.134Z,-3.83
2022-12-18T20:34:06.217Z,-3.89
2022-12-18T20:37:19.462Z,-3.89
2022-12-18T20:40:23.619Z,-3.90
2022-12-18T20:43:26.157Z,-4.07
2022-12-18T20:46:28.593Z,-4.00
2022-12-18T20:49:30.997Z,-3.99
2022-12-18T20:52:33.622Z,-4.15
2022-12-18T20:55:41.394Z,-3.99
2022-12-18T20:58:44.135Z,-3.81
2022-12-18T21:01:48.813Z,-3.90
2022-12-18T21:04:53.261Z,-3.92
2022-12-18T21:07:55.734Z,-3.98
2022-12-18T21:11:35.842Z,-3.91
2022-12-18T21:14:38.269Z,-3.99
2022-12-18T21:17:45.012Z,-3.98
2022-12-18T21:20:47.989Z,-4.30
2022-12-18T21:23:51.160Z,-4.34
2022-12-18T21:26:54.465Z,-4.58
2022-12-18T21:29:56.910Z,-4.43
2022-12-18T21:32:59.498Z,-4.42
2022-12-18T21:36:06.473Z,-4.51
2022-12-18T21:39:09.114Z,-4.30
2022-12-18T21:42:30.454Z,-4.28
2022-12-18T21:45:33.197Z,-4.37
2022-12-18T21:48:38.406Z,-4.39
2022-12-18T21:51:41.222Z,-4.40
2022-12-18T21:54:43.687Z,-4.50
2022-12-18T21:57:46.246Z,-4.67
2022-12-18T22:00:50.123Z,-4.57
2022-12-18T22:03:53.045Z,-4.64
2022-12-18T22:06:55.755Z,-4.74
2022-12-18T22:09:58.456Z,-4.63
2022-12-18T22:13:02.311Z,-4.78
2022-12-18T22:16:05.050Z,-4.64
2022-12-18T22:19:07.697Z,-4.77
2022-12-18T22:22:10.070Z,-4.78
2022-12-18T22:25:12.591Z,-4.90
2022-12-18T22:28:33.323Z,-4.71
2022-12-18T22:31:36.023Z,-4.89
2022-12-18T22:34:39.453Z,-5.12
2022-12-18T22:37:41.842Z,-4.96
2022-12-18T22:40:44.213Z,-5.31
2022-12-18T22:43:46.654Z,-4.77
2022-12-18T22:47:05.519Z,-5.07
2022-12-18T22:50:12.997Z,-4.92
2022-12-18T22:53:15.378Z,-5.23
2022-12-18T22:56:21.366Z,-5.10
2022-12-18T22:59:24.310Z,-5.43
2022-12-18T23:02:26.978Z,-5.28
2022-12-18T23:05:30.958Z,-5.49
2022-12-18T23:08:34.876Z,-5.45
2022-12-18T23:11:37.267Z,-5.60
2022-12-18T23:14:39.618Z,-5.55
2022-12-18T23:17:41.981Z,-5.54
2022-12-18T23:20:44.371Z,-5.56
2022-12-18T23:23:46.810Z,-6.00
2022-12-18T23:26:49.210Z,-5.52
2022-12-18T23:29:51.585Z,-5.69
2022-12-18T23:32:55.118Z,-5.66
2022-12-18T23:36:02.209Z,-5.84
2022-12-18T23:39:04.718Z,-5.65
2022-12-18T23:42:07.092Z,-5.60
2022-12-18T23:45:15.859Z,-5.43
2022-12-18T23:48:21.154Z,-5.37
2022-12-18T23:51:25.627Z,-5.42
2022-12-18T23:54:33.232Z,-5.33
2022-12-18T23:57:36.139Z,-5.52
